Tennessee Colony, TX (75861)

1:58 PM CST on February 14, 2016 (GMT -0600)
Hadley | | Change Station
CLOSE
Current Station
Personal Weather Station
Location: Tennessee Colony, TX
Elevation: 370 ft
Nearby Weather Stations

Elev 370 ft 31.83 °N, 95.85 °W | Updated 12 minutes ago

Overcast
Overcast
69.9 °F
Feels Like 69.9 °F
N
8.0
Wind Variable Wind from SSW

Today
High -- | Low -- °F
--% Chance of Precip.
Yesterday
High -- | Low -- °F
Precip. -- in
Pressure 29.95 in
Visibility 10.0 miles
Clouds Overcast 5000 ft
Dew Point 55 °F
Humidity 59%
Rainfall 0.00 in
Snow Depth Not available.
7:07 AM 6:09 PM
Waxing Crescent, 44% visible
METAR KPSN 141935Z AUTO 18009G14KT 160V230 10SM OVC050 21/12 A2995 RMK AO2 T02080125
Pressure 29.95 in
Visibility 10.0 miles
Clouds Overcast 5000 ft
Dew Point 55 °F
Humidity 59%
Rainfall 0.00 in
Snow Depth Not available.
7:07 AM 6:09 PM
Waxing Crescent, 44% visible
METAR KPSN 141935Z AUTO 18009G14KT 160V230 10SM OVC050 21/12 A2995 RMK AO2 T02080125

10-Day Weather Forecast

Almanac

Astronomy

Feb. 14, 2016 Rise Set
Actual Time
Civil Twilight
Nautical Twilight
Astronomical Twilight
Moon
Length of Visible Light
Length of Day
Tomorrow will be .
, % of the Moon is Illuminated

Today's Extremes

State Highs State Lows

Community

WunderPhotos

Upload Photos

1,892,879 photos uploaded!

WunderBlog® & News

Nearby

Air Quality

  Air Quality AQ Index Pollutant
Not available.

Snow Depth

Station Depth Elevation

Earthquake Activity

City Distance Mag. Time & Date
Minimum magnitude displayed is 2.5.

Coastal Water Temperatures

Place Temperature

Stations

Nearby Weather Stations

Station Location Temp. Windchill Dew Point Humidity Wind Precip. Elev Updated Type
                   

Watches & Warnings

There are currently no watches in effect.